Time;durP1;ratioP1;P1;durP2;ratioP2;P2;SDS_P1;SDS_P2;PMS_P1;PMS_P2;Temp;Humidity;BMP_temperature;BMP_pressure;BME280_temperature;BME280_humidity;BME280_pressure;Samples;Min_cycle;Max_cycle;Signal;HPM_P1;HPM_P2
2023/10/13 00:26:28;;;;;;;5.53;1.67;;;9.60;99.90;;;;;;10041268;29;20247;-76
2023/10/13 00:31:52;;;;;;;8.43;2.63;;;9.60;99.90;;;;;;10028362;29;20302;-76
2023/10/13 00:37:18;;;;;;;8.13;2.43;;;9.50;99.90;;;;;;10039460;29;20242;-77
2023/10/13 00:42:51;;;;;;;8.83;2.17;;;9.50;99.90;;;;;;10097769;29;20651;-76
2023/10/13 00:48:13;;;;;;;6.33;2.03;;;9.40;99.90;;;;;;10145436;29;20214;-77
2023/10/13 00:53:40;;;;;;;7.77;4.23;;;9.30;99.90;;;;;;10123345;29;20431;-76
2023/10/13 00:59:03;;;;;;;13.67;3.93;;;9.30;99.90;;;;;;10221604;29;20245;-77
2023/10/13 01:04:28;;;;;;;8.93;4.03;;;9.30;99.90;;;;;;10318410;28;20218;-76
2023/10/13 01:09:49;;;;;;;8.43;2.90;;;9.30;99.90;;;;;;10358591;28;20388;-77
2023/10/13 01:15:33;;;;;;;5.93;2.40;;;9.20;99.90;;;;;;10341724;28;20222;-77
2023/10/13 01:21:27;;;;;;;12.53;5.50;;;9.10;99.90;;;;;;10327152;28;20275;-77
2023/10/13 01:26:51;;;;;;;9.80;4.30;;;9.00;99.90;;;;;;10348890;28;20223;-76
2023/10/13 01:32:12;;;;;;;7.90;3.20;;;9.00;99.90;;;;;;10356811;28;20222;-77
2023/10/13 01:37:33;;;;;;;5.50;3.07;;;9.00;96.90;;;;;;10354976;28;20239;-76
2023/10/13 01:42:55;;;;;;;5.17;2.47;;;8.90;99.90;;;;;;10356412;28;20192;-76
2023/10/13 01:48:21;;;;;;;11.77;3.97;;;8.90;99.90;;;;;;10356652;28;20207;-77
2023/10/13 01:54:11;;;;;;;6.07;2.90;;;8.90;99.90;;;;;;10365689;28;20236;-76
2023/10/13 01:59:33;;;;;;;5.07;2.63;;;8.90;99.90;;;;;;10355648;28;20224;-76
2023/10/13 02:04:57;;;;;;;7.30;2.50;;;8.80;77.80;;;;;;10344437;28;20500;-76
2023/10/13 02:10:23;;;;;;;7.90;2.83;;;8.80;99.90;;;;;;10315722;28;20193;-76
2023/10/13 02:15:46;;;;;;;10.40;2.73;;;8.80;99.90;;;;;;10333326;28;20479;-76
2023/10/13 02:21:14;;;;;;;8.70;2.37;;;8.80;99.90;;;;;;10348839;28;20206;-76
2023/10/13 02:26:38;;;;;;;8.70;2.63;;;8.80;1.00;;;;;;10327055;28;20215;-76
2023/10/13 02:32:04;;;;;;;11.90;2.37;;;8.80;1.00;;;;;;10339539;28;20242;-77
2023/10/13 02:37:27;;;;;;;12.40;4.73;;;8.70;1.00;;;;;;10313545;28;20229;-77
2023/10/13 02:42:49;;;;;;;7.23;3.43;;;8.70;1.00;;;;;;10321974;28;20209;-77
2023/10/13 02:48:16;;;;;;;5.87;2.90;;;8.60;1.00;;;;;;10367773;28;20188;-76
2023/10/13 02:53:37;;;;;;;8.37;3.47;;;8.70;1.00;;;;;;10352459;28;20259;-76
2023/10/13 02:59:05;;;;;;;7.17;3.33;;;8.60;99.90;;;;;;10337383;28;20277;-77
2023/10/13 03:04:27;;;;;;;11.23;3.77;;;8.50;1.00;;;;;;10349861;28;20417;-77
2023/10/13 03:09:52;;;;;;;11.83;4.90;;;8.50;1.00;;;;;;10320362;28;20287;-77
2023/10/13 03:15:17;;;;;;;6.27;4.00;;;8.50;1.00;;;;;;10352316;28;20235;-77
2023/10/13 03:20:41;;;;;;;6.73;3.37;;;8.50;99.90;;;;;;10347202;28;20279;-77
2023/10/13 03:26:09;;;;;;;12.17;5.03;;;8.50;99.90;;;;;;10346212;28;20216;-76
2023/10/13 03:31:36;;;;;;;12.50;5.50;;;8.40;99.90;;;;;;10362280;28;20198;-77
2023/10/13 03:36:58;;;;;;;10.13;5.40;;;8.40;1.00;;;;;;10358527;28;20240;-77
2023/10/13 03:42:21;;;;;;;14.57;7.27;;;8.40;99.90;;;;;;10345950;28;20197;-77
2023/10/13 03:47:45;;;;;;;11.13;5.17;;;8.30;99.90;;;;;;10321070;28;20236;-77
2023/10/13 03:53:12;;;;;;;9.10;4.00;;;8.10;99.90;;;;;;10328950;28;20238;-76
2023/10/13 03:58:39;;;;;;;6.60;3.17;;;8.00;99.90;;;;;;10360127;28;20249;-76
2023/10/13 04:04:04;;;;;;;8.07;3.80;;;7.90;99.90;;;;;;10355867;28;20208;-76
2023/10/13 04:20:32;;;;;;;12.10;5.97;;;7.70;99.90;;;;;;10345186;28;20208;-76
2023/10/13 04:26:07;;;;;;;16.03;8.37;;;7.70;99.90;;;;;;10344428;28;20393;-76
2023/10/13 04:31:55;;;;;;;11.03;4.97;;;7.70;99.90;;;;;;10358736;28;20231;-76
2023/10/13 04:43:32;;;;;;;59.77;41.40;;;7.70;99.90;;;;;;10314446;28;20627;-77
2023/10/13 04:48:47;;;;;;;70.97;46.73;;;7.70;99.90;;;;;;10299152;28;20209;-77
2023/10/13 04:54:25;;;;;;;108.97;72.60;;;7.70;99.90;;;;;;10314017;28;20268;-76
2023/10/13 05:00:54;;;;;;;52.73;32.23;;;7.70;99.90;;;;;;10298204;28;20359;-76
2023/10/13 05:50:57;;;;;;;9.27;5.10;;;7.10;99.90;;;;;;10355569;28;20282;-77
2023/10/13 06:30:28;;;;;;;9.17;5.20;;;7.60;30.30;;;;;;10295683;28;20217;-77
2023/10/13 06:35:56;;;;;;;9.07;5.20;;;7.90;99.90;;;;;;10321916;28;20320;-78
2023/10/13 06:41:30;;;;;;;11.37;5.73;;;8.20;1.00;;;;;;10339897;28;20254;-78
2023/10/13 06:46:54;;;;;;;7.33;4.30;;;8.60;1.00;;;;;;10296324;28;20305;-77
2023/10/13 06:52:16;;;;;;;7.27;4.10;;;9.30;1.00;;;;;;10335348;28;20201;-78
2023/10/13 06:57:37;;;;;;;13.07;6.00;;;9.50;1.00;;;;;;10298551;28;20233;-78
2023/10/13 07:08:39;;;;;;;6.77;3.63;;;10.00;1.00;;;;;;10351754;28;20197;-78
2023/10/13 07:14:10;;;;;;;6.17;3.37;;;9.90;1.00;;;;;;10351023;28;20249;-78
2023/10/13 07:19:33;;;;;;;7.50;4.10;;;9.80;41.20;;;;;;10340958;28;20202;-78
2023/10/13 07:24:58;;;;;;;9.50;4.73;;;10.00;99.90;;;;;;10333379;28;20212;-81
2023/10/13 07:30:20;;;;;;;15.80;5.87;;;10.20;99.90;;;;;;10308325;28;20229;-78
2023/10/13 07:35:41;;;;;;;9.90;5.80;;;10.30;1.00;;;;;;10347173;28;20249;-79
2023/10/13 07:41:08;;;;;;;13.93;7.17;;;10.30;99.90;;;;;;10338168;28;20275;-78
2023/10/13 07:46:32;;;;;;;14.60;5.90;;;10.30;1.00;;;;;;10346199;28;20240;-78
2023/10/13 07:51:57;;;;;;;9.10;5.40;;;10.40;1.00;;;;;;10344698;28;20274;-77
2023/10/13 07:57:18;;;;;;;12.33;6.53;;;10.40;1.00;;;;;;10330684;28;20223;-77
2023/10/13 08:02:49;;;;;;;19.80;9.27;;;10.60;1.00;;;;;;10337458;28;20219;-77
2023/10/13 08:08:14;;;;;;;17.37;8.10;;;10.60;1.00;;;;;;10347091;28;20770;-77
2023/10/13 08:13:37;;;;;;;9.80;4.57;;;10.80;1.00;;;;;;10339275;28;20242;-77
2023/10/13 08:19:06;;;;;;;7.50;3.10;;;10.70;99.90;;;;;;10338596;28;20275;-78
2023/10/13 08:35:23;;;;;;;43.63;20.93;;;10.80;99.90;;;;;;10337970;28;20251;-79
2023/10/13 08:41:29;;;;;;;16.20;7.87;;;11.00;99.90;;;;;;10334876;28;20224;-79
2023/10/13 08:47:03;;;;;;;11.60;5.30;;;11.10;99.90;;;;;;10348893;28;20207;-79
2023/10/13 08:58:14;;;;;;;6.30;2.50;;;11.40;99.90;;;;;;10335076;28;20225;-80
2023/10/13 09:03:39;;;;;;;9.73;4.10;;;11.50;1.00;;;;;;10306949;28;20223;-79
2023/10/13 09:09:07;;;;;;;20.83;11.40;;;11.50;1.00;;;;;;10350992;28;20230;-79
2023/10/13 09:14:35;;;;;;;17.77;7.80;;;11.40;8.90;;;;;;10351601;28;20302;-79
2023/10/13 09:19:57;;;;;;;19.40;9.87;;;11.50;99.90;;;;;;10350689;28;20211;-81
2023/10/13 09:25:22;;;;;;;13.23;4.70;;;11.60;99.90;;;;;;10336902;28;20229;-80
2023/10/13 09:30:56;;;;;;;8.67;4.10;;;11.70;1.00;;;;;;10310361;28;20212;-79
2023/10/13 09:36:19;;;;;;;11.80;4.57;;;11.80;1.30;;;;;;10317966;28;20243;-79
2023/10/13 09:41:40;;;;;;;10.43;4.53;;;11.90;1.00;;;;;;10352313;28;20213;-78
2023/10/13 09:47:29;;;;;;;13.90;5.10;;;12.10;1.00;;;;;;10339970;28;20239;-79
2023/10/13 09:52:46;;;;;;;13.03;3.67;;;12.20;1.00;;;;;;10349643;28;20234;-79
2023/10/13 09:58:11;;;;;;;9.13;2.80;;;12.30;1.00;;;;;;10335803;28;20246;-79
2023/10/13 10:03:43;;;;;;;8.40;3.33;;;12.40;1.00;;;;;;10351030;28;20194;-80
2023/10/13 10:09:12;;;;;;;9.30;3.53;;;12.30;1.00;;;;;;10356218;28;20254;-78
2023/10/13 10:14:56;;;;;;;14.60;5.90;;;12.40;1.00;;;;;;10367981;28;20230;-78
2023/10/13 10:20:42;;;;;;;15.37;4.37;;;12.50;1.00;;;;;;10332678;28;20196;-79
2023/10/13 10:26:19;;;;;;;10.03;4.43;;;12.60;1.00;;;;;;10338357;28;20404;-79
2023/10/13 10:31:44;;;;;;;11.83;4.17;;;12.80;1.00;;;;;;10309479;28;20205;-80
2023/10/13 10:37:09;;;;;;;14.83;7.73;;;12.80;1.00;;;;;;10310525;28;20319;-80
2023/10/13 10:42:30;;;;;;;11.27;4.23;;;12.90;99.90;;;;;;10339827;28;20263;-79
2023/10/13 10:47:56;;;;;;;12.30;5.67;;;13.00;1.00;;;;;;10326423;28;20216;-79
2023/10/13 10:59:22;;;;;;;18.17;8.65;;;13.00;99.90;;;;;;10233162;29;20228;-87
2023/10/13 11:04:55;;;;;;;12.37;5.97;;;13.10;1.00;;;;;;10237946;29;20210;-84
2023/10/13 11:10:31;;;;;;;9.33;4.97;;;13.20;99.90;;;;;;10211239;29;20215;-78
2023/10/13 11:15:56;;;;;;;12.03;6.90;;;13.30;1.00;;;;;;10224803;29;20254;-78
2023/10/13 11:21:17;;;;;;;14.23;6.18;;;13.40;1.00;;;;;;10223764;29;20222;-79
2023/10/13 11:26:57;;;;;;;13.67;6.70;;;13.40;99.90;;;;;;10217092;29;20245;-79
2023/10/13 11:32:20;;;;;;;19.80;8.23;;;13.30;1.00;;;;;;10267569;28;20241;-78
2023/10/13 11:37:43;;;;;;;20.50;9.57;;;13.20;46.80;;;;;;10338009;28;20244;-78
2023/10/13 11:43:04;;;;;;;23.65;10.95;;;13.20;1.00;;;;;;10356870;28;20213;-78
2023/10/13 11:48:36;;;;;;;22.03;9.63;;;13.30;1.00;;;;;;10343220;28;20360;-78
2023/10/13 11:53:57;;;;;;;30.33;11.47;;;13.20;99.90;;;;;;10349343;28;20561;-78
2023/10/13 11:59:27;;;;;;;19.97;9.50;;;13.20;99.90;;;;;;10353512;28;20617;-78
2023/10/13 12:04:54;;;;;;;27.05;12.13;;;13.20;1.00;;;;;;10356049;28;20417;-79
2023/10/13 12:10:20;;;;;;;28.57;15.63;;;13.20;1.00;;;;;;10332500;28;20283;-78
2023/10/13 12:15:52;;;;;;;32.30;17.00;;;13.30;1.00;;;;;;10340558;28;20261;-79
2023/10/13 12:21:19;;;;;;;26.63;15.40;;;13.20;1.00;;;;;;10337681;28;20273;-78
2023/10/13 12:26:42;;;;;;;23.50;13.03;;;13.20;1.00;;;;;;10362561;28;20240;-79
2023/10/13 12:32:11;;;;;;;34.30;18.85;;;13.20;1.00;;;;;;10317139;28;20256;-78
2023/10/13 12:54:23;;;;;;;35.60;18.60;;;13.30;1.00;;;;;;10351718;28;20297;-79
2023/10/13 12:59:45;;;;;;;35.70;17.33;;;13.30;3.30;;;;;;10324460;28;20204;-77
2023/10/13 13:05:11;;;;;;;32.13;18.85;;;13.30;33.60;;;;;;10336339;28;20292;-76
2023/10/13 13:10:35;;;;;;;30.77;18.07;;;13.30;99.90;;;;;;10339251;28;20205;-76
2023/10/13 13:15:56;;;;;;;42.03;22.25;;;13.30;99.90;;;;;;10351873;28;20232;-77
2023/10/13 13:21:22;;;;;;;26.52;19.17;;;13.30;99.90;;;;;;10352418;28;20205;-77
2023/10/13 13:26:44;;;;;;;30.03;18.00;;;13.30;99.90;;;;;;10347964;28;20199;-77
2023/10/13 13:32:06;;;;;;;37.17;19.70;;;13.30;99.90;;;;;;10345567;28;20311;-78
2023/10/13 13:37:29;;;;;;;31.37;20.10;;;13.30;99.90;;;;;;10329278;28;20275;-77
2023/10/13 13:42:50;;;;;;;28.23;18.27;;;13.30;99.90;;;;;;10346740;28;20190;-76
2023/10/13 13:48:15;;;;;;;34.37;22.13;;;13.30;99.90;;;;;;10336691;28;20244;-76
2023/10/13 13:53:42;;;;;;;28.97;18.77;;;13.30;99.90;;;;;;10343956;28;20279;-78
2023/10/13 13:59:15;;;;;;;53.88;32.17;;;13.40;99.90;;;;;;10345041;28;20507;-78
2023/10/13 14:04:37;;;;;;;34.95;22.50;;;13.40;99.90;;;;;;10349592;28;20291;-77
2023/10/13 14:10:07;;;;;;;38.93;25.17;;;13.40;99.90;;;;;;10340226;28;20370;-77
2023/10/13 14:15:28;;;;;;;39.92;24.05;;;13.50;99.90;;;;;;10338252;28;20300;-78
2023/10/13 14:20:49;;;;;;;36.70;23.03;;;13.50;99.90;;;;;;10345911;28;20205;-76
2023/10/13 14:26:12;;;;;;;40.13;26.00;;;13.60;99.90;;;;;;10345481;28;20426;-77
2023/10/13 14:31:36;;;;;;;35.65;24.25;;;13.80;99.90;;;;;;10333446;28;20264;-77
2023/10/13 14:37:00;;;;;;;32.88;21.52;;;;;;;;;;10320665;28;20259;-78
2023/10/13 14:42:26;;;;;;;33.95;22.58;;;;;;;;;;10341066;28;20217;-77
2023/10/13 14:47:52;;;;;;;36.55;22.08;;;;;;;;;;10359486;28;20198;-77
2023/10/13 14:53:17;;;;;;;33.20;22.10;;;;;;;;;;10347633;28;20248;-78
2023/10/13 14:58:42;;;;;;;29.05;19.95;;;;;;;;;;10339652;28;20210;-77
2023/10/13 15:04:04;;;;;;;31.97;22.90;;;14.20;99.90;;;;;;10330124;28;20221;-79
2023/10/13 15:09:26;;;;;;;34.30;21.73;;;14.40;99.90;;;;;;10351661;28;20202;-77
2023/10/13 15:14:47;;;;;;;33.67;22.15;;;14.30;99.90;;;;;;10354299;28;20290;-78
2023/10/13 15:20:15;;;;;;;31.38;21.60;;;14.40;99.90;;;;;;10343231;28;20208;-78
2023/10/13 15:25:49;;;;;;;32.35;20.52;;;14.40;99.90;;;;;;10358839;28;20220;-78
2023/10/13 15:31:22;;;;;;;37.13;21.83;;;14.60;99.90;;;;;;10357814;28;20209;-78
2023/10/13 15:36:44;;;;;;;29.77;20.52;;;14.50;99.90;;;;;;10361831;28;20240;-75
2023/10/13 15:42:05;;;;;;;32.05;23.73;;;14.60;99.90;;;;;;10360724;28;20478;-77
2023/10/13 15:47:34;;;;;;;47.47;32.50;;;14.50;99.90;;;;;;10359693;28;20196;-80
2023/10/13 15:52:58;;;;;;;39.73;26.87;;;14.70;99.90;;;;;;10339481;28;20507;-76
2023/10/13 15:58:21;;;;;;;36.80;27.23;;;14.70;99.90;;;;;;10347546;28;20287;-77
2023/10/13 16:03:54;;;;;;;33.60;23.83;;;14.80;99.90;;;;;;10359909;28;20196;-79
2023/10/13 16:09:22;;;;;;;27.42;19.70;;;14.80;99.90;;;;;;10330212;28;20202;-78
2023/10/13 16:14:44;;;;;;;28.70;20.20;;;14.80;99.90;;;;;;10360242;28;20226;-76
2023/10/13 16:20:15;;;;;;;22.17;16.23;;;14.90;99.90;;;;;;10322533;28;20384;-77
2023/10/13 16:25:37;;;;;;;38.22;24.13;;;14.90;99.90;;;;;;10348787;28;20197;-78
2023/10/13 16:30:58;;;;;;;29.92;20.77;;;14.90;99.90;;;;;;10357801;28;20450;-79
2023/10/13 16:36:22;;;;;;;28.13;19.88;;;15.00;99.90;;;;;;10358400;28;20254;-78
2023/10/13 16:41:45;;;;;;;25.98;17.23;;;15.00;99.90;;;;;;10330439;28;20213;-78
2023/10/13 16:47:07;;;;;;;29.05;16.98;;;15.10;99.90;;;;;;10358094;28;20276;-80
2023/10/13 16:52:29;;;;;;;24.13;16.77;;;15.10;99.90;;;;;;10347985;28;20224;-80
2023/10/13 16:57:50;;;;;;;27.05;16.17;;;15.20;99.90;;;;;;10358084;28;20358;-78
2023/10/13 17:03:12;;;;;;;26.77;16.98;;;15.30;99.90;;;;;;10318826;28;20239;-80
2023/10/13 17:08:36;;;;;;;21.30;16.00;;;15.30;99.90;;;;;;10326091;28;20391;-81
2023/10/13 17:13:58;;;;;;;21.48;15.38;;;15.30;99.90;;;;;;10352114;28;20221;-81
2023/10/13 17:19:19;;;;;;;27.30;19.77;;;15.40;99.90;;;;;;10348351;28;20485;-80
2023/10/13 17:24:40;;;;;;;29.38;21.02;;;15.40;99.90;;;;;;10358227;28;20244;-80
2023/10/13 17:30:01;;;;;;;25.98;18.77;;;15.40;99.90;;;;;;10355788;28;20563;-80
2023/10/13 17:35:23;;;;;;;18.92;13.35;;;15.50;99.90;;;;;;10357615;28;20270;-80
2023/10/13 17:40:44;;;;;;;20.30;13.68;;;15.50;99.90;;;;;;10355486;28;20289;-80
2023/10/13 17:46:11;;;;;;;20.80;13.18;;;15.50;99.90;;;;;;10357109;28;20486;-80
2023/10/13 17:51:33;;;;;;;20.10;13.38;;;15.60;99.90;;;;;;10328731;28;20213;-80
2023/10/13 17:56:54;;;;;;;23.17;11.60;;;15.60;99.90;;;;;;10356654;28;20222;-80
2023/10/13 18:02:16;;;;;;;18.60;12.90;;;15.60;99.90;;;;;;10328318;28;20206;-79
2023/10/13 18:07:42;;;;;;;21.00;13.70;;;15.70;99.90;;;;;;10316167;28;20413;-78
2023/10/13 18:13:04;;;;;;;19.08;11.68;;;15.80;99.90;;;;;;10355516;28;20213;-80
2023/10/13 18:18:26;;;;;;;17.75;11.57;;;15.80;99.90;;;;;;10327277;28;20362;-80
2023/10/13 18:23:48;;;;;;;16.88;11.75;;;15.80;99.90;;;;;;10354380;28;20494;-80
2023/10/13 18:29:09;;;;;;;17.30;11.52;;;15.90;99.90;;;;;;10354477;28;20198;-80
2023/10/13 18:34:31;;;;;;;15.20;10.15;;;15.90;99.90;;;;;;10353138;28;20264;-80
2023/10/13 18:39:53;;;;;;;19.15;12.15;;;15.80;99.90;;;;;;10353378;28;20214;-80
2023/10/13 18:45:25;;;;;;;20.20;11.30;;;15.90;99.90;;;;;;10354199;28;20219;-79
2023/10/13 18:50:46;;;;;;;16.10;9.95;;;16.00;99.90;;;;;;10352307;28;20209;-80
2023/10/13 18:56:10;;;;;;;15.85;10.10;;;16.00;99.90;;;;;;10329106;28;20235;-79
2023/10/13 19:01:34;;;;;;;13.13;9.52;;;16.10;99.90;;;;;;10354010;28;20268;-80
2023/10/13 19:06:59;;;;;;;19.85;10.00;;;16.20;99.90;;;;;;10350073;28;20294;-80
2023/10/13 19:12:22;;;;;;;13.52;9.63;;;16.20;99.90;;;;;;10353203;28;20383;-80
2023/10/13 19:17:44;;;;;;;16.77;9.77;;;16.20;99.90;;;;;;10351626;28;20279;-80
2023/10/13 19:23:05;;;;;;;16.02;10.50;;;16.10;99.90;;;;;;10339330;28;20214;-80
2023/10/13 19:28:26;;;;;;;15.93;9.48;;;16.10;99.90;;;;;;10351914;28;20206;-80
2023/10/13 19:33:48;;;;;;;13.20;9.45;;;16.10;99.90;;;;;;10350953;28;20242;-80
2023/10/13 19:39:18;;;;;;;16.17;8.90;;;16.10;99.90;;;;;;10352521;28;20230;-80
2023/10/13 19:44:43;;;;;;;15.00;8.13;;;16.20;99.90;;;;;;10352811;28;20207;-80
2023/10/13 19:50:04;;;;;;;17.35;8.65;;;16.20;99.90;;;;;;10341927;28;20228;-80
2023/10/13 19:55:25;;;;;;;16.70;9.40;;;16.20;99.90;;;;;;10339968;28;20295;-79
2023/10/13 20:00:47;;;;;;;18.30;12.48;;;16.20;99.90;;;;;;10338767;28;20200;-80
2023/10/13 20:06:09;;;;;;;14.43;9.10;;;16.30;99.90;;;;;;10351812;28;20254;-80
2023/10/13 20:11:30;;;;;;;18.83;8.98;;;16.30;99.90;;;;;;10359955;28;20196;-77
2023/10/13 20:16:54;;;;;;;14.20;8.75;;;16.30;99.90;;;;;;10359572;28;20307;-80
2023/10/13 20:22:15;;;;;;;12.20;8.13;;;16.30;99.90;;;;;;10358369;28;20194;-78
2023/10/13 20:27:37;;;;;;;18.38;8.52;;;16.30;99.90;;;;;;10360410;28;20197;-80
2023/10/13 20:32:59;;;;;;;16.67;10.18;;;16.30;99.90;;;;;;10354938;28;20489;-80
2023/10/13 20:38:20;;;;;;;13.05;8.68;;;16.40;99.90;;;;;;10358681;28;20237;-80
2023/10/13 20:43:41;;;;;;;13.75;8.52;;;16.40;99.90;;;;;;10358829;28;20204;-79
2023/10/13 20:49:04;;;;;;;16.13;9.10;;;16.40;99.90;;;;;;10358320;28;20270;-80
2023/10/13 20:54:26;;;;;;;19.83;8.32;;;16.40;99.90;;;;;;10354028;28;20232;-80
2023/10/13 20:59:49;;;;;;;14.25;8.07;;;16.40;99.90;;;;;;10359221;28;20203;-80
2023/10/13 21:05:12;;;;;;;11.23;7.57;;;16.50;99.90;;;;;;10357448;28;20207;-79
2023/10/13 21:10:33;;;;;;;14.52;7.43;;;16.50;99.90;;;;;;10341050;28;20197;-80
2023/10/13 21:15:54;;;;;;;12.40;7.38;;;16.60;99.90;;;;;;10350019;28;20243;-79
2023/10/13 21:21:20;;;;;;;11.45;6.70;;;16.70;99.90;;;;;;10355141;28;20383;-79
2023/10/13 21:26:42;;;;;;;12.82;7.30;;;16.70;99.90;;;;;;10339072;28;20240;-80
2023/10/13 21:32:03;;;;;;;13.00;6.65;;;16.80;99.90;;;;;;10331691;28;20215;-80
2023/10/13 21:37:24;;;;;;;9.93;6.40;;;16.80;99.90;;;;;;10356596;28;20474;-80
2023/10/13 21:42:47;;;;;;;13.40;6.80;;;16.80;99.90;;;;;;10355289;28;20237;-80
2023/10/13 21:48:08;;;;;;;14.55;7.13;;;16.90;99.90;;;;;;10355928;28;20218;-80
2023/10/13 21:53:30;;;;;;;10.13;6.25;;;16.90;99.90;;;;;;10339450;28;20196;-80
2023/10/13 21:58:51;;;;;;;17.33;6.97;;;17.00;99.90;;;;;;10340063;28;20239;-80
2023/10/13 22:04:20;;;;;;;14.15;6.35;;;17.00;99.90;;;;;;10315909;28;20280;-80
2023/10/13 22:09:46;;;;;;;15.27;6.70;;;17.10;99.90;;;;;;10331304;28;20204;-79
2023/10/13 22:15:07;;;;;;;10.05;5.50;;;17.10;99.90;;;;;;10363698;28;20223;-79
2023/10/13 22:20:29;;;;;;;11.30;6.07;;;17.10;99.90;;;;;;10355094;28;20195;-79
2023/10/13 22:25:50;;;;;;;14.55;5.55;;;17.20;1.00;;;;;;10354039;28;20247;-79
2023/10/13 22:31:13;;;;;;;10.80;5.90;;;17.30;99.90;;;;;;10320492;28;20220;-79
2023/10/13 22:36:34;;;;;;;14.30;6.15;;;17.30;1.00;;;;;;10355381;28;20396;-79
2023/10/13 22:41:58;;;;;;;12.30;6.45;;;17.30;99.90;;;;;;10353107;28;20212;-80
2023/10/13 22:47:21;;;;;;;12.25;5.40;;;17.30;1.00;;;;;;10353903;28;20212;-80
2023/10/13 22:52:43;;;;;;;15.90;5.82;;;17.30;99.90;;;;;;10333380;28;20201;-80
2023/10/13 22:58:09;;;;;;;17.67;8.32;;;17.40;1.00;;;;;;10327609;28;20225;-78
2023/10/13 23:03:41;;;;;;;13.68;6.80;;;17.40;99.90;;;;;;10338350;28;20436;-79
2023/10/13 23:09:12;;;;;;;11.95;5.63;;;17.40;1.00;;;;;;10353972;28;20197;-79
2023/10/13 23:14:33;;;;;;;12.68;6.53;;;17.30;44.30;;;;;;10331419;28;20383;-80
2023/10/13 23:19:54;;;;;;;19.40;9.45;;;17.30;1.00;;;;;;10329397;28;20207;-79
2023/10/13 23:25:15;;;;;;;18.00;5.60;;;17.40;99.90;;;;;;10351599;28;20392;-78
2023/10/13 23:30:38;;;;;;;16.75;6.07;;;17.30;99.90;;;;;;10326013;28;20244;-80
2023/10/13 23:36:02;;;;;;;13.90;5.82;;;17.30;1.00;;;;;;10366469;28;20255;-80
2023/10/13 23:41:27;;;;;;;13.15;5.53;;;17.40;99.90;;;;;;10353947;28;20221;-80
2023/10/13 23:46:48;;;;;;;11.00;5.20;;;17.40;1.00;;;;;;10360456;28;20455;-80
2023/10/13 23:52:10;;;;;;;14.43;5.82;;;17.40;1.00;;;;;;10356719;28;20224;-80
2023/10/13 23:57:32;;;;;;;14.05;5.55;;;17.40;1.00;;;;;;10333638;28;20232;-79
